Riddleton, Tennessee
Current Conditions -  °F | °C
As of 6:55 PM on Wednesday 22 Oct 2014 (Local Time) from KSRB Reporting Station
Clear Clear  
Wind Chill: 45°   Ceiling: Unl
Heat Index: 45°   Visibility: 10mi
Dew Point: 41°   Wind: 3mph
Humidity: 87%   Direction: 50°NE
Pressure: 30.19"   Gusts: NA
Location:  36.32°N, 86.02°W
Report Text: KSRB 222355Z AUTO 05003KT 10SM CLR 07/05 A3019 RMK
Loading
Personal Weather Stations






























Interactive Weather Map
Tropical Storm Tracking
New forecast layout! Learn more

10-Day Weather Forecast

Advertisements
Track Severe Weather on mobile